Time;durP1;ratioP1;P1;durP2;ratioP2;P2;SDS_P1;SDS_P2;PMS_P1;PMS_P2;Temp;Humidity;BMP_temperature;BMP_pressure;BME280_temperature;BME280_humidity;BME280_pressure;Samples;Min_cycle;Max_cycle;Signal;HPM_P1;HPM_P2
2022/10/16 00:00:04;;;;;;;7.25;6.59;;;;;;;4.79;64.17;102235.75;452806;117;922497;-79
2022/10/16 00:01:10;;;;;;;6.63;6.08;;;;;;;4.78;64.20;102237.60;452684;115;922493;-79
2022/10/16 00:02:14;;;;;;;8.36;6.63;;;;;;;4.77;64.16;102235.02;452613;117;922651;-77
2022/10/16 00:03:17;;;;;;;6.58;5.81;;;;;;;4.77;64.16;102235.02;452837;117;922601;-76
2022/10/16 00:04:19;;;;;;;6.80;6.30;;;;;;;4.76;64.29;102228.77;452847;117;922578;-78
2022/10/16 00:05:22;;;;;;;6.23;5.73;;;;;;;4.76;64.40;102230.61;452889;117;922586;-78
2022/10/16 00:06:27;;;;;;;6.29;5.75;;;;;;;4.75;64.29;102239.70;452825;115;922535;-77
2022/10/16 00:07:30;;;;;;;6.13;5.46;;;;;;;4.74;64.38;102233.44;452755;117;922580;-78
2022/10/16 00:08:33;;;;;;;6.20;5.62;;;;;;;4.73;64.39;102234.45;452854;117;922519;-78
2022/10/16 00:09:36;;;;;;;5.45;5.06;;;;;;;4.74;64.33;102232.61;450512;117;922469;-78
2022/10/16 00:10:40;;;;;;;6.36;5.82;;;;;;;4.71;64.29;102239.13;450493;117;922672;-78
2022/10/16 00:11:42;;;;;;;6.38;5.34;;;;;;;4.72;64.34;102234.58;450416;117;922488;-78
2022/10/16 00:12:45;;;;;;;6.29;5.79;;;;;;;4.71;64.31;102238.27;450525;117;923265;-79
2022/10/16 00:13:51;;;;;;;6.65;5.96;;;;;;;4.69;64.34;102232.99;450520;117;922581;-78
2022/10/16 00:14:54;;;;;;;6.27;5.77;;;;;;;4.69;64.42;102238.40;450300;117;923394;-77
2022/10/16 00:15:59;;;;;;;6.22;5.72;;;;;;;4.69;64.43;102234.84;453293;115;922490;-77
2022/10/16 00:17:02;;;;;;;5.31;4.91;;;;;;;4.68;64.33;102239.41;460613;115;923156;-78
2022/10/16 00:18:05;;;;;;;5.76;5.30;;;;;;;4.66;64.38;102235.98;460770;115;930508;-78
2022/10/16 00:19:10;;;;;;;5.69;5.19;;;;;;;4.66;64.42;102233.28;460718;115;922426;-79
2022/10/16 00:20:13;;;;;;;5.27;4.83;;;;;;;4.66;64.41;102232.42;460603;115;922573;-78
2022/10/16 00:21:20;;;;;;;7.11;5.24;;;;;;;4.66;64.58;102229.72;460751;115;922980;-78
2022/10/16 00:22:23;;;;;;;5.74;4.92;;;;;;;4.65;64.42;102233.41;460615;115;922536;-79
2022/10/16 00:23:27;;;;;;;4.95;4.52;;;;;;;4.63;64.42;102228.98;460729;115;922692;-78
2022/10/16 00:24:29;;;;;;;5.14;4.74;;;;;;;4.63;64.47;102230.87;460807;115;922553;-78
2022/10/16 00:25:33;;;;;;;5.89;4.86;;;;;;;4.63;64.57;102232.71;460775;115;922861;-78
2022/10/16 00:26:37;;;;;;;5.47;5.07;;;;;;;4.62;64.65;102229.15;460776;115;923109;-78
2022/10/16 00:27:40;;;;;;;5.53;5.10;;;;;;;4.63;64.59;102236.27;460579;115;922558;-78
2022/10/16 00:28:46;;;;;;;5.71;5.21;;;;;;;4.62;64.62;102229.15;460788;115;922537;-78
2022/10/16 00:29:51;;;;;;;6.66;4.72;;;;;;;4.63;64.66;102228.98;460149;115;922938;-77
2022/10/16 00:30:54;;;;;;;4.83;4.46;;;;;;;4.63;64.78;102228.98;458825;115;922557;-78
2022/10/16 00:31:57;;;;;;;5.12;4.63;;;;;;;4.64;64.81;102229.84;453685;115;930470;-79
2022/10/16 00:33:00;;;;;;;4.59;4.19;;;;;;;4.65;64.86;102234.27;450431;117;930510;-77
2022/10/16 00:34:03;;;;;;;5.46;4.96;;;;;;;4.68;64.93;102235.86;451571;115;922983;-77
2022/10/16 00:35:06;;;;;;;5.22;4.74;;;;;;;4.68;65.05;102239.41;452892;117;922869;-77
2022/10/16 00:36:13;;;;;;;5.27;4.86;;;;;;;4.70;65.04;102231.15;452804;117;922686;-77
2022/10/16 00:37:16;;;;;;;4.65;4.31;;;;;;;4.71;64.94;102233.73;452169;115;930486;-76
2022/10/16 00:38:19;;;;;;;5.15;4.76;;;;;;;4.73;65.04;102237.16;457297;116;922553;-77
2022/10/16 00:39:22;;;;;;;4.59;4.29;;;;;;;4.75;65.07;102228.89;457418;116;922377;-77
2022/10/16 00:40:25;;;;;;;4.58;4.25;;;;;;;4.76;65.11;102233.31;457430;116;922825;-77
2022/10/16 00:41:29;;;;;;;5.31;4.83;;;;;;;4.78;64.97;102225.94;457422;116;922445;-79
2022/10/16 00:42:32;;;;;;;4.71;4.31;;;;;;;4.79;64.95;102223.10;447902;118;923215;-77
2022/10/16 00:43:45;;;;;;;4.80;4.40;;;;;;;4.80;64.93;102227.48;448345;116;922882;-77
2022/10/16 00:44:52;;;;;;;4.79;4.41;;;;;;;4.82;65.00;102230.92;457148;116;922942;-77
2022/10/16 00:45:55;;;;;;;3.78;3.53;;;;;;;4.82;64.85;102239.03;457203;116;922875;-76
2022/10/16 00:46:58;;;;;;;4.56;4.16;;;;;;;4.83;64.92;102234.48;457373;116;923014;-78
2022/10/16 00:48:02;;;;;;;4.72;4.33;;;;;;;4.82;64.89;102233.63;457281;116;922536;-76
2022/10/16 00:49:11;;;;;;;4.62;4.21;;;;;;;4.83;64.86;102242.59;457325;116;930478;-77
2022/10/16 00:50:32;;;;;;;4.51;4.11;;;;;;;4.82;64.89;102233.63;457174;116;922599;-78
2022/10/16 00:51:42;;;;;;;4.66;4.27;;;;;;;4.84;64.77;102244.30;457190;116;922594;-77
2022/10/16 00:52:48;;;;;;;4.13;3.83;;;;;;;4.82;64.69;102235.47;457161;116;922724;-77
2022/10/16 00:53:51;;;;;;;5.00;4.59;;;;;;;4.82;64.79;102246.28;457175;116;922564;-76
2022/10/16 00:54:55;;;;;;;4.54;4.16;;;;;;;4.82;64.73;102240.88;457302;116;922502;-77
2022/10/16 00:55:58;;;;;;;4.39;4.04;;;;;;;4.82;64.72;102244.44;457220;116;930447;-78
2022/10/16 00:57:04;;;;;;;4.20;3.71;;;;;;;4.82;64.82;102235.47;457287;116;930518;-78
2022/10/16 00:58:08;;;;;;;4.10;3.80;;;;;;;4.82;64.75;102239.03;457177;116;922935;-78
2022/10/16 00:59:17;;;;;;;4.69;4.10;;;;;;;4.83;64.81;102243.45;457457;116;922515;-77
2022/10/16 01:00:24;;;;;;;4.17;3.83;;;;;;;4.83;64.66;102238.04;457172;116;922722;-78
2022/10/16 01:01:27;;;;;;;4.24;3.94;;;;;;;4.82;64.58;102235.47;457185;116;922548;-79
2022/10/16 01:02:30;;;;;;;4.04;3.61;;;;;;;4.81;64.57;102239.16;457300;116;922399;-78
2022/10/16 01:03:36;;;;;;;4.04;3.58;;;;;;;4.80;64.54;102242.84;457373;116;922553;-76
2022/10/16 01:04:43;;;;;;;3.83;3.56;;;;;;;4.78;64.45;102239.44;457155;116;922534;-77
2022/10/16 01:05:52;;;;;;;3.76;3.47;;;;;;;4.77;64.42;102240.43;464659;114;922510;-78
2022/10/16 01:07:01;;;;;;;5.51;4.43;;;;;;;4.74;64.37;102244.24;464483;114;922589;-77
2022/10/16 01:08:22;;;;;;;4.14;3.84;;;;;;;4.72;64.35;102239.98;465231;114;922823;-77
2022/10/16 01:09:50;;;;;;;3.78;3.47;;;;;;;4.69;64.25;102241.09;464545;114;922598;-77
2022/10/16 01:11:00;;;;;;;4.24;3.94;;;;;;;4.66;64.30;102243.23;445665;118;923246;-77
2022/10/16 01:12:18;;;;;;;4.44;3.62;;;;;;;4.62;64.33;102242.66;445724;119;922873;-77
2022/10/16 01:13:32;;;;;;;4.16;3.83;;;;;;;4.69;64.46;102243.80;477040;110;946748;-77
2022/10/16 01:14:48;;;;;;;7.30;4.12;;;;;;;4.55;64.50;102245.04;465398;114;922776;-77
2022/10/16 01:16:15;;;;;;;4.16;3.87;;;;;;;4.55;64.48;102250.44;451951;116;923154;-77
2022/10/16 01:17:37;;;;;;;3.96;3.66;;;;;;;4.54;64.54;102253.27;471051;112;923200;-76
2022/10/16 01:19:00;;;;;;;3.77;3.47;;;;;;;4.53;64.61;102255.11;470699;112;922484;-77
2022/10/16 01:20:07;;;;;;;3.94;3.64;;;;;;;4.52;64.60;102253.39;471328;112;922480;-77
2022/10/16 01:21:14;;;;;;;4.12;3.77;;;;;;;4.49;64.69;102253.67;471299;112;922756;-76
2022/10/16 01:22:19;;;;;;;3.86;3.56;;;;;;;4.49;64.75;102256.38;471145;112;922699;-77
2022/10/16 01:23:26;;;;;;;5.05;3.23;;;;;;;4.49;64.80;102255.52;471308;112;922559;-78
2022/10/16 01:24:47;;;;;;;3.49;3.23;;;;;;;4.49;64.78;102256.38;471286;112;922533;-77
2022/10/16 01:26:05;;;;;;;4.25;3.89;;;;;;;4.51;64.87;102256.25;471273;112;922553;-78
2022/10/16 01:27:12;;;;;;;4.12;3.13;;;;;;;4.51;64.93;102251.71;471311;112;922800;-77
2022/10/16 01:28:17;;;;;;;4.29;3.87;;;;;;;4.51;64.85;102254.41;471261;112;922904;-76
2022/10/16 01:29:31;;;;;;;4.37;4.07;;;;;;;4.51;64.88;102257.11;471338;112;922553;-76
2022/10/16 01:30:36;;;;;;;4.87;3.59;;;;;;;4.52;65.03;102258.80;462751;114;923173;-77
2022/10/16 01:31:43;;;;;;;3.48;3.17;;;;;;;4.54;65.01;102258.67;462989;114;922391;-77
2022/10/16 01:32:55;;;;;;;4.09;3.78;;;;;;;4.55;64.97;102255.84;462976;114;922565;-77
2022/10/16 01:34:04;;;;;;;4.33;3.94;;;;;;;4.56;64.95;102256.70;465301;112;922623;-77
2022/10/16 01:35:26;;;;;;;4.38;3.83;;;;;;;4.57;64.94;102259.28;471288;112;923398;-78
2022/10/16 01:36:38;;;;;;;3.76;3.36;;;;;;;4.58;64.68;102249.30;471243;112;922831;-76
2022/10/16 01:37:45;;;;;;;3.38;3.12;;;;;;;4.58;64.68;102249.30;470077;112;923020;-77
2022/10/16 01:38:52;;;;;;;4.00;3.43;;;;;;;4.58;64.94;102252.86;471309;112;922646;-77
2022/10/16 01:39:58;;;;;;;3.72;3.39;;;;;;;4.59;64.98;102251.88;471293;112;922479;-77
2022/10/16 01:41:17;;;;;;;3.89;3.24;;;;;;;4.61;65.02;102249.05;471300;112;922504;-78
2022/10/16 01:42:23;;;;;;;5.76;3.23;;;;;;;4.63;64.95;102255.18;471333;112;922505;-77
2022/10/16 01:43:33;;;;;;;4.07;3.28;;;;;;;4.63;65.09;102248.92;471300;112;922547;-77
2022/10/16 01:44:38;;;;;;;3.38;3.02;;;;;;;4.64;65.03;102259.56;471406;112;922544;-76
2022/10/16 01:45:44;;;;;;;3.79;3.49;;;;;;;4.64;65.03;102259.56;471316;112;922763;-76
2022/10/16 01:46:50;;;;;;;3.87;3.57;;;;;;;4.65;64.94;102258.58;471384;112;922559;-77
2022/10/16 01:47:54;;;;;;;4.47;3.43;;;;;;;4.66;64.82;102251.34;471316;112;923069;-76
2022/10/16 01:49:01;;;;;;;4.24;3.83;;;;;;;4.66;64.79;102254.03;471394;112;922516;-77
2022/10/16 01:50:05;;;;;;;4.14;3.79;;;;;;;4.65;64.76;102258.58;471320;112;923067;-77
2022/10/16 01:51:13;;;;;;;3.59;3.35;;;;;;;4.66;64.76;102252.20;471304;112;922784;-77
2022/10/16 01:52:20;;;;;;;4.51;3.94;;;;;;;4.67;64.73;102262.02;463384;112;925540;-78
2022/10/16 01:53:24;;;;;;;4.08;3.13;;;;;;;4.68;64.86;102257.47;462992;114;922876;-76
2022/10/16 01:54:30;;;;;;;3.75;3.48;;;;;;;4.68;64.77;102261.03;463156;114;922611;-76
2022/10/16 01:55:41;;;;;;;4.06;3.76;;;;;;;4.70;64.70;102263.57;463083;114;922436;-77
2022/10/16 01:56:45;;;;;;;3.42;3.15;;;;;;;4.69;64.74;102262.71;463137;114;922539;-77
2022/10/16 01:57:50;;;;;;;5.82;3.02;;;;;;;4.69;64.67;102262.71;462997;114;922869;-76
2022/10/16 01:58:57;;;;;;;3.46;3.16;;;;;;;4.71;64.67;102270.69;462960;114;930962;-76
2022/10/16 02:00:03;;;;;;;3.94;3.26;;;;;;;4.72;64.68;102269.70;463036;114;922692;-76
2022/10/16 02:01:12;;;;;;;3.57;3.27;;;;;;;4.73;64.70;102274.13;462042;114;922577;-76
2022/10/16 02:02:17;;;;;;;3.38;3.11;;;;;;;4.74;64.72;102273.14;463079;114;922566;-77
2022/10/16 02:03:21;;;;;;;3.68;3.39;;;;;;;4.74;64.61;102262.33;463064;114;922675;-77
2022/10/16 02:04:33;;;;;;;3.44;3.14;;;;;;;4.74;64.61;102270.44;463210;114;922593;-77
2022/10/16 02:05:46;;;;;;;3.26;3.03;;;;;;;4.74;64.68;102260.45;463044;114;922995;-77
2022/10/16 02:06:49;;;;;;;3.48;3.19;;;;;;;4.75;64.58;102264.02;463075;114;923016;-77
2022/10/16 02:07:53;;;;;;;2.92;2.67;;;;;;;4.74;64.67;102262.33;463166;114;922966;-77
2022/10/16 02:08:56;;;;;;;3.41;3.11;;;;;;;4.74;64.61;102254.23;463226;114;925319;-78
2022/10/16 02:10:01;;;;;;;3.32;2.94;;;;;;;4.74;64.68;102257.75;463286;114;922441;-75
2022/10/16 02:11:04;;;;;;;3.28;3.07;;;;;;;4.74;64.58;102265.86;463072;114;922544;-77
2022/10/16 02:12:28;;;;;;;3.56;3.29;;;;;;;4.73;64.58;102261.47;463330;114;922527;-77
2022/10/16 02:13:38;;;;;;;3.34;2.98;;;;;;;4.73;64.68;102256.08;463380;114;922668;-77
2022/10/16 02:14:41;;;;;;;4.67;3.30;;;;;;;4.74;64.74;102262.33;463701;114;922560;-77
2022/10/16 02:15:44;;;;;;;3.24;3.03;;;;;;;4.72;64.78;102261.60;464301;114;922479;-76
2022/10/16 02:16:47;;;;;;;2.91;2.71;;;;;;;4.73;64.67;102269.58;464487;114;922817;-76
2022/10/16 02:17:50;;;;;;;3.29;2.99;;;;;;;4.74;64.66;102270.44;464399;114;922446;-76
2022/10/16 02:18:53;;;;;;;3.23;2.99;;;;;;;4.74;64.76;102270.44;455178;116;922407;-76
2022/10/16 02:19:57;;;;;;;3.37;3.12;;;;;;;4.75;64.69;102270.28;455106;116;922417;-77
2022/10/16 02:21:16;;;;;;;3.18;2.90;;;;;;;4.76;64.66;102271.14;454469;116;922538;-77
2022/10/16 02:22:22;;;;;;;3.61;3.31;;;;;;;4.77;64.71;102271.02;450226;117;922517;-77
2022/10/16 02:23:54;;;;;;;3.16;2.76;;;;;;;4.78;64.64;102274.58;445742;118;923116;-77
2022/10/16 02:25:01;;;;;;;;;;;;;;;4.79;64.73;102276.29;431507;124;922536;-78
2022/10/16 02:26:07;;;;;;;2.98;2.78;;;;;;;4.79;64.66;102274.45;444240;117;922959;-78
2022/10/16 02:27:17;;;;;;;3.18;2.93;;;;;;;4.77;64.75;102270.16;444551;119;923274;-76
2022/10/16 02:28:26;;;;;;;3.74;3.46;;;;;;;4.76;64.90;102274.70;439010;120;922830;-78
2022/10/16 02:29:30;;;;;;;3.26;2.95;;;;;;;4.78;64.94;102277.27;439954;118;922645;-78
2022/10/16 02:30:40;;;;;;;3.09;2.89;;;;;;;4.80;64.85;102283.38;446646;118;922491;-77
2022/10/16 02:31:47;;;;;;;3.39;3.10;;;;;;;4.82;64.97;102281.41;451864;116;922578;-77
2022/10/16 02:32:51;;;;;;;3.99;3.24;;;;;;;4.84;64.95;102287.55;455334;116;922472;-77
2022/10/16 02:33:58;;;;;;;3.29;3.00;;;;;;;4.87;64.85;102285.41;453596;115;922644;-77
2022/10/16 02:35:02;;;;;;;4.22;3.43;;;;;;;4.90;64.84;102278.89;443763;119;922968;-77
2022/10/16 02:36:06;;;;;;;3.11;2.91;;;;;;;4.92;64.81;102285.86;446726;118;922516;-77
2022/10/16 02:37:10;;;;;;;3.35;3.05;;;;;;;4.95;64.76;102284.74;454500;116;922490;-77
2022/10/16 02:38:15;;;;;;;3.32;3.05;;;;;;;4.98;64.70;102290.72;454439;116;922972;-78
2022/10/16 02:39:18;;;;;;;4.41;3.06;;;;;;;5.01;64.68;102284.20;454385;116;922609;-77
2022/10/16 02:40:21;;;;;;;3.04;2.81;;;;;;;5.04;64.62;102292.02;454385;116;930570;-76
2022/10/16 02:41:27;;;;;;;3.07;2.87;;;;;;;5.07;64.49;102289.06;454281;115;922537;-78
2022/10/16 02:42:36;;;;;;;3.64;3.31;;;;;;;5.07;64.49;102289.06;454458;116;922631;-77
2022/10/16 02:43:39;;;;;;;3.78;3.15;;;;;;;5.10;64.56;102290.61;454319;116;922557;-77
2022/10/16 02:44:42;;;;;;;3.21;3.00;;;;;;;5.12;64.62;102288.64;454528;116;922586;-76
2022/10/16 02:45:45;;;;;;;3.12;2.89;;;;;;;5.14;64.54;102292.90;454531;115;922547;-79
2022/10/16 02:46:48;;;;;;;3.07;2.87;;;;;;;5.15;64.48;102291.91;454399;116;922444;-78
2022/10/16 02:47:52;;;;;;;4.01;2.97;;;;;;;5.18;64.43;102288.95;454401;116;930741;-78
2022/10/16 02:48:55;;;;;;;3.26;3.03;;;;;;;5.19;64.39;102287.93;454458;116;922651;-78
2022/10/16 02:49:58;;;;;;;3.81;3.30;;;;;;;5.21;64.33;102290.50;454476;116;922983;-78
2022/10/16 02:51:01;;;;;;;3.27;3.04;;;;;;;5.21;64.31;102283.25;454430;115;922869;-79
2022/10/16 02:52:03;;;;;;;3.29;3.09;;;;;;;5.22;64.31;102284.97;454822;116;922536;-78
2022/10/16 02:53:06;;;;;;;3.08;2.87;;;;;;;5.24;64.38;102291.07;454942;116;922685;-78
2022/10/16 02:54:09;;;;;;;3.96;3.24;;;;;;;5.25;64.28;102289.23;454941;116;922548;-78
2022/10/16 02:55:12;;;;;;;3.45;3.15;;;;;;;5.25;64.20;102290.08;454917;116;922664;-77
2022/10/16 02:56:15;;;;;;;3.19;2.96;;;;;;;5.26;64.25;102290.94;454939;116;922550;-77
2022/10/16 02:57:19;;;;;;;3.29;3.07;;;;;;;5.25;64.13;102287.37;454940;116;922600;-77
2022/10/16 02:58:22;;;;;;;3.36;2.93;;;;;;;5.27;64.09;102289.95;454395;116;922839;-76
2022/10/16 02:59:25;;;;;;;3.87;3.48;;;;;;;5.26;64.17;102296.35;454490;116;922618;-76
2022/10/16 03:00:28;;;;;;;3.49;3.17;;;;;;;5.26;64.08;102285.53;454505;116;922599;-76
2022/10/16 03:01:31;;;;;;;3.62;3.39;;;;;;;5.27;64.10;102289.95;454450;116;922773;-77
2022/10/16 03:02:35;;;;;;;3.67;3.10;;;;;;;5.27;64.14;102285.41;454493;116;922525;-78
2022/10/16 03:03:37;;;;;;;3.47;3.19;;;;;;;5.28;64.11;102291.67;454508;116;922658;-78
2022/10/16 03:04:40;;;;;;;3.37;2.90;;;;;;;5.28;63.96;102281.71;454528;116;922874;-77
2022/10/16 03:05:45;;;;;;;3.40;3.11;;;;;;;5.28;63.94;102281.71;454440;116;922589;-76
2022/10/16 03:06:48;;;;;;;3.17;2.93;;;;;;;5.29;63.96;102291.51;454315;116;922523;-77
2022/10/16 03:07:52;;;;;;;3.27;3.01;;;;;;;5.28;63.79;102297.08;454490;116;922523;-77
2022/10/16 03:08:55;;;;;;;3.41;3.12;;;;;;;5.28;63.77;102297.94;454432;116;922538;-76
2022/10/16 03:10:00;;;;;;;3.72;3.28;;;;;;;5.27;63.80;102296.22;454414;116;922964;-77
2022/10/16 03:11:03;;;;;;;3.18;2.98;;;;;;;5.26;63.85;102294.50;454395;116;922556;-77
2022/10/16 03:12:06;;;;;;;3.58;3.06;;;;;;;5.27;63.74;102298.06;454546;116;923046;-78
2022/10/16 03:13:09;;;;;;;6.48;3.46;;;;;;;5.27;63.84;102298.06;454455;116;922642;-76
2022/10/16 03:14:12;;;;;;;3.05;2.84;;;;;;;5.27;63.74;102298.06;452371;116;930460;-77
2022/10/16 03:15:15;;;;;;;4.58;3.27;;;;;;;5.27;63.82;102301.63;463132;114;922832;-76
2022/10/16 03:16:18;;;;;;;4.03;3.72;;;;;;;5.26;63.74;102302.62;463123;114;922586;-76
2022/10/16 03:17:21;;;;;;;3.29;2.99;;;;;;;5.26;63.85;102297.21;463130;114;922584;-77
2022/10/16 03:18:24;;;;;;;3.22;2.98;;;;;;;5.27;63.86;102301.63;463125;114;922668;-76
2022/10/16 03:19:27;;;;;;;6.59;3.19;;;;;;;5.27;63.74;102306.18;463131;113;922558;-78
2022/10/16 03:20:30;;;;;;;3.20;3.00;;;;;;;5.28;63.70;102302.48;463127;114;922539;-78
2022/10/16 03:21:33;;;;;;;3.14;2.81;;;;;;;5.27;63.69;102296.22;463090;114;922947;-78
2022/10/16 03:22:36;;;;;;;3.12;2.83;;;;;;;5.26;63.76;102293.64;463200;114;922910;-77
2022/10/16 03:23:39;;;;;;;3.21;2.90;;;;;;;5.26;63.76;102299.05;463125;114;922427;-78
2022/10/16 03:24:42;;;;;;;3.45;3.15;;;;;;;5.25;63.76;102302.75;463099;114;922623;-77
2022/10/16 03:25:45;;;;;;;3.45;3.06;;;;;;;5.25;63.62;102297.34;463078;113;922516;-77
2022/10/16 03:26:50;;;;;;;3.63;3.31;;;;;;;5.23;63.73;102300.20;462904;114;922798;-77
2022/10/16 03:27:53;;;;;;;3.94;3.60;;;;;;;5.23;63.70;102308.31;463115;114;922486;-77
2022/10/16 03:28:56;;;;;;;3.39;2.98;;;;;;;5.23;63.75;102304.76;463098;114;922985;-75
2022/10/16 03:29:59;;;;;;;3.32;2.99;;;;;;;5.22;63.79;102298.48;463083;114;922514;-77
2022/10/16 03:31:02;;;;;;;3.39;3.19;;;;;;;5.22;63.66;102303.90;463121;114;922956;-77
2022/10/16 03:32:05;;;;;;;4.01;3.14;;;;;;;5.23;63.68;102302.91;463148;114;922634;-77
2022/10/16 03:33:08;;;;;;;3.00;2.80;;;;;;;5.23;63.68;102302.05;463072;114;922640;-76
2022/10/16 03:34:11;;;;;;;3.12;2.92;;;;;;;5.24;63.72;102306.44;468136;112;922845;-77
2022/10/16 03:35:14;;;;;;;3.46;3.16;;;;;;;5.24;63.69;102301.03;471389;112;922497;-77
2022/10/16 03:36:17;;;;;;;3.54;3.24;;;;;;;5.23;63.73;102300.20;471350;112;922553;-77
2022/10/16 03:37:20;;;;;;;4.33;3.81;;;;;;;5.23;63.84;102305.61;471423;112;922465;-77
2022/10/16 03:38:23;;;;;;;6.13;5.53;;;;;;;5.24;63.82;102301.89;471411;112;922532;-77
2022/10/16 03:39:27;;;;;;;8.43;7.06;;;;;;;5.23;63.73;102305.61;471394;112;922496;-78
2022/10/16 03:40:32;;;;;;;8.37;7.59;;;;;;;5.24;63.70;102303.73;471351;112;922447;-78
2022/10/16 03:41:34;;;;;;;9.97;9.07;;;;;;;5.25;63.83;102310.86;471167;112;930461;-78
2022/10/16 03:42:38;;;;;;;9.49;8.63;;;;;;;5.24;63.82;102310.00;471406;112;922586;-78
2022/10/16 03:43:41;;;;;;;10.62;9.63;;;;;;;5.23;63.80;102311.02;471396;112;922954;-77
2022/10/16 03:44:44;;;;;;;10.43;9.53;;;;;;;5.23;63.75;102311.02;471395;112;922560;-77
2022/10/16 03:45:47;;;;;;;10.74;9.60;;;;;;;5.22;63.59;102313.86;471390;112;922776;-78
2022/10/16 03:46:50;;;;;;;12.13;10.93;;;;;;;5.21;63.62;102304.88;471422;112;922580;-76
2022/10/16 03:47:53;;;;;;;12.16;11.03;;;;;;;5.20;63.70;102315.83;471421;112;922958;-77
2022/10/16 03:48:56;;;;;;;10.17;9.26;;;;;;;5.20;63.66;102318.53;471343;112;922561;-77
2022/10/16 03:50:00;;;;;;;10.03;8.12;;;;;;;5.19;63.72;102312.27;471358;112;922454;-77
2022/10/16 03:51:03;;;;;;;6.87;6.32;;;;;;;5.17;63.66;102311.57;471219;112;922399;-77
2022/10/16 03:52:06;;;;;;;5.60;5.14;;;;;;;5.16;63.68;102315.26;464928;112;930577;-78
2022/10/16 03:53:09;;;;;;;5.29;4.83;;;;;;;5.17;63.68;102316.12;463110;114;922601;-77
2022/10/16 03:54:11;;;;;;;6.00;5.48;;;;;;;5.15;63.61;102313.55;463101;114;922543;-77
2022/10/16 03:55:14;;;;;;;5.99;5.59;;;;;;;5.13;63.69;102318.22;463115;114;922543;-77
2022/10/16 03:56:17;;;;;;;6.01;5.51;;;;;;;5.13;63.65;102311.98;463101;114;922795;-77
2022/10/16 03:57:20;;;;;;;6.12;5.64;;;;;;;5.12;63.70;102307.56;463132;114;922472;-76
2022/10/16 03:58:24;;;;;;;5.74;5.34;;;;;;;5.11;63.71;102312.11;463114;114;922525;-77
2022/10/16 03:59:27;;;;;;;6.64;6.14;;;;;;;5.10;63.84;102307.70;463101;114;922461;-77
2022/10/16 04:00:30;;;;;;;5.81;5.37;;;;;;;5.11;63.92;102316.66;463115;114;922914;-77
2022/10/16 04:01:33;;;;;;;5.30;4.94;;;;;;;5.11;63.87;102314.82;463102;114;922470;-77
2022/10/16 04:02:36;;;;;;;5.33;4.91;;;;;;;5.11;63.94;102313.96;463072;114;922484;-77
2022/10/16 04:03:39;;;;;;;5.94;5.46;;;;;;;5.10;63.87;102317.65;463084;114;922531;-78
2022/10/16 04:04:42;;;;;;;5.51;5.08;;;;;;;5.09;63.87;102315.94;463109;114;922582;-77
2022/10/16 04:05:45;;;;;;;6.92;4.73;;;;;;;5.10;63.93;102317.65;463077;114;922938;-77
2022/10/16 04:06:48;;;;;;;4.39;4.09;;;;;;;5.09;63.94;102314.09;463102;114;922868;-76
2022/10/16 04:07:51;;;;;;;4.92;4.54;;;;;;;5.09;63.92;102314.09;463081;114;923356;-78
2022/10/16 04:08:54;;;;;;;4.88;4.33;;;;;;;5.08;63.88;102316.92;463042;114;922635;-77
2022/10/16 04:09:58;;;;;;;4.24;3.87;;;;;;;5.07;63.86;102321.50;463144;114;922512;-77
2022/10/16 04:11:01;;;;;;;4.37;4.02;;;;;;;5.07;63.86;102318.80;462965;114;922614;-78
2022/10/16 04:12:04;;;;;;;4.26;3.86;;;;;;;5.04;63.84;102317.20;463086;114;930362;-77
2022/10/16 04:13:08;;;;;;;5.08;3.99;;;;;;;5.04;63.86;102316.34;463116;114;922652;-77
2022/10/16 04:14:11;;;;;;;3.82;3.52;;;;;;;5.05;63.89;102323.47;463088;114;923024;-77
2022/10/16 04:15:14;;;;;;;4.38;4.00;;;;;;;5.03;64.01;102320.90;463145;114;922585;-76
2022/10/16 04:16:17;;;;;;;3.80;3.50;;;;;;;5.03;64.05;102325.45;467997;112;922568;-77
2022/10/16 04:17:20;;;;;;;3.87;3.58;;;;;;;5.03;64.03;102330.85;471374;112;922701;-77
2022/10/16 04:18:26;;;;;;;4.01;3.69;;;;;;;5.04;64.00;102329.86;471387;112;922550;-78
2022/10/16 04:19:28;;;;;;;4.04;3.54;;;;;;;5.03;64.03;102336.26;471248;112;922569;-77
2022/10/16 04:20:32;;;;;;;4.55;3.82;;;;;;;5.01;63.90;102333.72;471379;112;922904;-77
2022/10/16 04:21:35;;;;;;;4.33;3.54;;;;;;;5.00;63.92;102336.55;471357;112;922993;-77
2022/10/16 04:22:38;;;;;;;4.25;3.92;;;;;;;4.98;63.94;102331.27;471460;112;922509;-78
2022/10/16 04:23:42;;;;;;;4.29;3.99;;;;;;;4.97;63.95;102342.20;471378;112;922392;-78
2022/10/16 04:24:45;;;;;;;4.84;3.91;;;;;;;4.96;63.95;102343.22;471358;112;922498;-78
2022/10/16 04:25:48;;;;;;;4.24;3.83;;;;;;;4.94;63.90;102337.09;471333;112;930364;-77
2022/10/16 04:26:51;;;;;;;4.52;4.15;;;;;;;4.92;63.97;102339.05;471459;112;922417;-77
2022/10/16 04:27:55;;;;;;;8.56;3.55;;;;;;;4.91;64.09;102337.34;471465;112;922430;-77
2022/10/16 04:28:58;;;;;;;5.24;4.74;;;;;;;4.90;64.07;102336.52;471338;112;922792;-78
2022/10/16 04:30:01;;;;;;;4.27;3.97;;;;;;;4.89;64.17;102342.91;467876;112;930661;-78
2022/10/16 04:31:05;;;;;;;4.37;3.80;;;;;;;4.90;64.33;102343.77;463186;114;922650;-77
2022/10/16 04:32:09;;;;;;;4.18;3.86;;;;;;;4.90;64.33;102346.46;463053;114;923000;-77
2022/10/16 04:33:13;;;;;;;5.01;3.98;;;;;;;4.89;64.45;102345.60;444951;119;922708;-78
2022/10/16 04:34:15;;;;;;;4.42;3.86;;;;;;;4.92;64.58;102341.76;450715;115;922654;-77
2022/10/16 04:35:20;;;;;;;5.10;4.70;;;;;;;4.94;64.73;102351.45;471373;112;922431;-77
2022/10/16 04:36:24;;;;;;;5.04;4.57;;;;;;;4.96;64.77;102352.16;471229;112;922454;-78
2022/10/16 04:37:28;;;;;;;5.05;4.67;;;;;;;4.99;64.91;102351.91;470813;112;922501;-78
2022/10/16 04:38:32;;;;;;;7.96;4.54;;;;;;;5.01;64.90;102349.08;471422;112;922517;-76
2022/10/16 04:39:35;;;;;;;5.18;4.33;;;;;;;5.04;64.82;102354.20;471436;112;922526;-78
2022/10/16 04:40:38;;;;;;;4.04;3.69;;;;;;;5.04;64.82;102354.20;471379;112;922932;-77
2022/10/16 04:41:41;;;;;;;6.71;4.08;;;;;;;5.07;64.83;102358.49;471411;112;922974;-76
2022/10/16 04:42:44;;;;;;;4.38;4.08;;;;;;;5.08;64.86;102365.58;471416;112;922648;-78
2022/10/16 04:43:47;;;;;;;5.36;4.26;;;;;;;5.08;64.86;102357.47;471420;112;922493;-76
2022/10/16 04:44:50;;;;;;;6.21;3.81;;;;;;;5.10;64.83;102361.77;471410;112;922621;-76
2022/10/16 04:45:54;;;;;;;4.28;3.47;;;;;;;5.10;64.90;102359.06;471432;112;922418;-77
2022/10/16 04:46:57;;;;;;;4.28;3.98;;;;;;;5.12;64.94;102359.80;471281;112;922527;-77
2022/10/16 04:48:00;;;;;;;4.26;3.94;;;;;;;5.12;64.92;102357.09;471450;112;922568;-76
2022/10/16 04:49:03;;;;;;;3.82;3.52;;;;;;;5.14;64.90;102359.64;471384;112;922526;-76
2022/10/16 04:50:07;;;;;;;4.52;4.21;;;;;;;5.15;64.87;102361.36;469469;112;922448;-77
2022/10/16 04:51:10;;;;;;;4.44;3.89;;;;;;;5.16;64.88;102360.37;463044;114;922845;-77
2022/10/16 04:52:13;;;;;;;4.14;3.79;;;;;;;5.17;64.97;102359.38;470569;112;922852;-77
2022/10/16 04:53:17;;;;;;;5.47;3.60;;;;;;;5.17;64.92;102359.38;471235;112;923006;-77
2022/10/16 04:54:20;;;;;;;4.35;3.96;;;;;;;5.17;64.89;102353.97;471234;112;930388;-78
2022/10/16 04:55:23;;;;;;;4.23;3.94;;;;;;;5.18;64.92;102359.25;471304;112;930637;-77
2022/10/16 04:56:26;;;;;;;4.29;3.96;;;;;;;5.19;64.96;102360.94;471384;112;922579;-76
2022/10/16 04:57:30;;;;;;;3.97;3.63;;;;;;;5.21;64.93;102361.67;471432;112;922535;-77
2022/10/16 04:58:33;;;;;;;4.17;3.84;;;;;;;5.20;64.99;102365.36;471370;112;922453;-79
2022/10/16 04:59:36;;;;;;;4.08;3.78;;;;;;;5.22;64.98;102363.39;471363;112;922679;-76
2022/10/16 05:00:39;;;;;;;4.34;3.96;;;;;;;5.24;65.05;102365.94;471356;112;922501;-77
2022/10/16 05:01:42;;;;;;;4.53;3.62;;;;;;;5.25;65.11;102370.36;471231;112;922839;-76
2022/10/16 05:02:45;;;;;;;3.69;3.39;;;;;;;5.26;65.10;102372.08;471320;112;922552;-77